Ewing, New Jersey
Current Conditions -  °F | °C
As of 10:53 PM on Saturday 20 Dec 2014 (Local Time) from KTTN Reporting Station
Overcast Overcast  
Wind Chill: 30°   Ceiling: 3200
Heat Index: 30°   Visibility: 10mi
Dew Point: 21°   Wind: 3mph
Humidity: 69%   Direction: 300°WNW
Pressure: 30.29"   Gusts: NA
Location:  40.27°N, 74.8°W
Report Text: KTTN 210353Z AUTO 30003KT 10SM OVC032 M01/M06 A3029 RMK AO2 SLP254 T10111061
Loading
Personal Weather Stations






























Interactive Weather Map New forecast layout! Learn more

10-Day Weather Forecast

Advertisements
Track Severe Weather on mobile